createdAt,value
2023-04-07T00:00:26.850Z,36.97
2023-04-07T00:01:29.415Z,34.55
2023-04-07T00:02:32.520Z,34.17
2023-04-07T00:03:34.691Z,32.10
2023-04-07T00:04:36.765Z,33.22
2023-04-07T00:05:38.799Z,33.70
2023-04-07T00:06:41.000Z,35.75
2023-04-07T00:07:55.087Z,33.97
2023-04-07T00:08:58.086Z,33.50
2023-04-07T00:09:59.947Z,37.90
2023-04-07T00:11:01.978Z,32.85
2023-04-07T00:12:04.832Z,35.17
2023-04-07T00:13:06.821Z,36.30
2023-04-07T00:14:08.980Z,36.75
2023-04-07T00:15:11.089Z,35.45
2023-04-07T00:16:12.986Z,36.72
2023-04-07T00:17:15.724Z,34.03
2023-04-07T00:18:17.572Z,36.75
2023-04-07T00:19:19.420Z,31.48
2023-04-07T00:20:21.469Z,36.45
2023-04-07T00:21:23.310Z,36.85
2023-04-07T00:22:25.470Z,34.63
2023-04-07T00:23:27.361Z,33.13
2023-04-07T00:24:34.382Z,37.08
2023-04-07T00:25:36.752Z,35.65
2023-04-07T00:26:38.689Z,38.30
2023-04-07T00:27:41.114Z,35.70
2023-04-07T00:28:42.996Z,35.40
2023-04-07T00:29:46.585Z,36.90
2023-04-07T00:30:48.487Z,37.38
2023-04-07T00:31:50.562Z,33.88
2023-04-07T00:32:52.825Z,37.58
2023-04-07T00:33:55.862Z,38.80
2023-04-07T00:34:58.041Z,35.05
2023-04-07T00:36:04.408Z,38.97
2023-04-07T00:37:06.492Z,34.70
2023-04-07T00:38:08.702Z,36.47
2023-04-07T00:39:10.625Z,36.97
2023-04-07T00:40:12.616Z,36.08
2023-04-07T00:41:14.539Z,33.90
2023-04-07T00:42:16.768Z,33.03
2023-04-07T00:43:19.776Z,35.53
2023-04-07T00:44:21.976Z,35.47
2023-04-07T00:45:23.898Z,36.17
2023-04-07T00:46:25.943Z,39.75
2023-04-07T00:47:27.950Z,40.53
2023-04-07T00:48:31.201Z,35.08
2023-04-07T00:49:33.155Z,34.20
2023-04-07T00:50:35.237Z,35.88
2023-04-07T00:51:37.122Z,37.38
2023-04-07T00:52:39.895Z,36.85
2023-04-07T00:53:42.844Z,36.33
2023-04-07T00:54:46.941Z,36.25
2023-04-07T00:55:49.420Z,34.05
2023-04-07T00:56:52.571Z,37.70
2023-04-07T00:57:54.653Z,35.72
2023-04-07T00:58:57.239Z,40.12
2023-04-07T00:59:59.204Z,36.75
2023-04-07T01:01:18.390Z,37.38
2023-04-07T01:02:36.670Z,36.95
2023-04-07T01:04:04.325Z,36.95
2023-04-07T01:05:23.578Z,35.88
2023-04-07T01:06:31.515Z,36.92
2023-04-07T01:07:42.236Z,35.17
2023-04-07T01:09:08.018Z,35.90
2023-04-07T01:10:16.515Z,35.45
2023-04-07T01:11:32.806Z,34.80
2023-04-07T01:12:54.610Z,34.85
2023-04-07T01:14:00.217Z,36.03
2023-04-07T01:15:09.757Z,37.42
2023-04-07T01:16:37.545Z,34.70
2023-04-07T01:17:44.240Z,35.45
2023-04-07T01:18:51.045Z,37.78
2023-04-07T01:20:08.451Z,36.42
2023-04-07T01:21:15.400Z,34.00
2023-04-07T01:22:23.665Z,34.58
2023-04-07T01:23:55.120Z,33.80
2023-04-07T01:25:02.725Z,34.70
2023-04-07T01:26:10.273Z,33.03
2023-04-07T01:27:54.299Z,32.20
2023-04-07T01:29:16.956Z,33.17
2023-04-07T01:32:27.670Z,34.90
2023-04-07T01:33:32.845Z,35.53
2023-04-07T01:34:37.040Z,32.05
2023-04-07T01:35:41.169Z,33.85
2023-04-07T01:36:44.029Z,37.17
2023-04-07T01:37:49.465Z,34.25
2023-04-07T01:38:52.490Z,34.00
2023-04-07T01:39:54.818Z,33.17
2023-04-07T01:40:59.122Z,28.52
2023-04-07T01:42:04.948Z,32.15
2023-04-07T01:43:07.793Z,30.88
2023-04-07T01:44:10.842Z,28.65
2023-04-07T01:45:14.480Z,30.80
2023-04-07T01:46:16.626Z,33.83
2023-04-07T01:47:19.075Z,27.27
2023-04-07T01:48:21.751Z,32.40
2023-04-07T01:49:25.176Z,29.12
2023-04-07T01:50:29.889Z,29.12
2023-04-07T01:51:33.774Z,31.73
2023-04-07T01:52:36.460Z,31.70
2023-04-07T01:53:39.599Z,30.20
2023-04-07T01:54:41.697Z,31.87
2023-04-07T01:55:44.180Z,31.58
2023-04-07T01:56:46.478Z,30.25
2023-04-07T01:57:48.486Z,29.60
2023-04-07T01:58:50.952Z,30.83
2023-04-07T01:59:53.749Z,28.70
2023-04-07T02:00:57.542Z,31.17
2023-04-07T02:02:00.568Z,32.40
2023-04-07T02:03:12.012Z,32.25
2023-04-07T02:04:37.405Z,30.60
2023-04-07T02:05:40.476Z,29.05
2023-04-07T02:06:49.233Z,30.67
2023-04-07T02:08:03.918Z,31.33
2023-04-07T02:09:10.982Z,36.92
2023-04-07T02:10:16.348Z,34.72
2023-04-07T02:11:22.309Z,33.40
2023-04-07T02:12:28.992Z,33.00
2023-04-07T02:13:34.206Z,33.95
2023-04-07T02:14:37.638Z,34.17
2023-04-07T02:15:41.439Z,32.65
2023-04-07T02:16:44.215Z,30.20
2023-04-07T02:17:50.042Z,34.17
2023-04-07T02:18:53.960Z,36.75
2023-04-07T02:19:58.198Z,31.40
2023-04-07T02:21:02.390Z,31.42
2023-04-07T02:22:05.569Z,32.75
2023-04-07T02:23:10.690Z,32.83
2023-04-07T02:24:13.080Z,31.33
2023-04-07T02:25:29.364Z,37.25
2023-04-07T02:26:36.253Z,34.45
2023-04-07T02:27:38.174Z,31.60
2023-04-07T02:28:40.177Z,30.65
2023-04-07T02:29:42.227Z,32.63
2023-04-07T02:30:44.090Z,32.42
2023-04-07T02:31:46.476Z,31.08
2023-04-07T02:32:48.503Z,32.00
2023-04-07T02:33:50.712Z,33.25
2023-04-07T02:34:52.638Z,32.38
2023-04-07T02:35:54.533Z,33.17
2023-04-07T02:36:56.882Z,29.15
2023-04-07T02:37:58.872Z,32.22
2023-04-07T02:39:00.937Z,33.17
2023-04-07T02:40:03.938Z,32.85
2023-04-07T02:41:06.714Z,34.17
2023-04-07T02:42:08.912Z,34.00
2023-04-07T02:43:10.874Z,31.33
2023-04-07T02:44:12.734Z,33.25
2023-04-07T02:45:14.712Z,34.17
2023-04-07T02:46:16.776Z,33.03
2023-04-07T02:47:19.205Z,35.47
2023-04-07T02:48:21.124Z,33.55
2023-04-07T02:49:23.021Z,30.77
2023-04-07T02:50:26.176Z,34.65
2023-04-07T02:51:28.880Z,33.70
2023-04-07T02:52:31.105Z,35.85
2023-04-07T02:53:33.075Z,37.90
2023-04-07T02:54:35.260Z,39.65
2023-04-07T02:55:37.882Z,35.13
2023-04-07T02:56:39.869Z,34.92
2023-04-07T02:57:42.177Z,33.80
2023-04-07T02:58:44.547Z,32.92
2023-04-07T02:59:46.557Z,34.78
2023-04-07T03:00:50.769Z,35.00
2023-04-07T03:01:53.530Z,33.88
2023-04-07T03:02:56.390Z,34.78
2023-04-07T03:03:58.752Z,36.25
2023-04-07T03:05:01.074Z,32.30
2023-04-07T03:06:03.214Z,34.10
2023-04-07T03:07:06.102Z,35.75
2023-04-07T03:08:08.618Z,34.45
2023-04-07T03:09:10.948Z,37.50
2023-04-07T03:10:12.885Z,36.72
2023-04-07T03:11:14.820Z,35.78
2023-04-07T03:12:17.224Z,34.80
2023-04-07T03:13:21.410Z,39.03
2023-04-07T03:14:23.345Z,32.53
2023-04-07T03:15:25.536Z,37.20
2023-04-07T03:16:27.765Z,35.53
2023-04-07T03:17:31.686Z,39.08
2023-04-07T03:18:33.875Z,35.28
2023-04-07T03:19:36.172Z,35.47
2023-04-07T03:20:38.263Z,38.15
2023-04-07T03:21:40.745Z,38.72
2023-04-07T03:22:44.564Z,39.25
2023-04-07T03:23:48.658Z,36.42
2023-04-07T03:24:50.778Z,38.13
2023-04-07T03:25:53.168Z,36.25
2023-04-07T03:26:55.092Z,35.92
2023-04-07T03:27:57.638Z,38.45
2023-04-07T03:29:00.334Z,34.58
2023-04-07T03:30:03.300Z,39.25
2023-04-07T03:31:05.460Z,37.78
2023-04-07T03:32:07.451Z,34.55
2023-04-07T03:33:09.433Z,38.30
2023-04-07T03:34:11.601Z,37.70
2023-04-07T03:35:14.229Z,34.45
2023-04-07T03:36:17.862Z,42.30
2023-04-07T03:37:20.651Z,38.42
2023-04-07T03:38:23.474Z,35.42
2023-04-07T03:39:26.353Z,35.97
2023-04-07T03:40:29.426Z,37.60
2023-04-07T03:41:31.563Z,36.90
2023-04-07T03:42:33.431Z,37.42
2023-04-07T03:43:36.056Z,36.15
2023-04-07T03:44:38.294Z,35.95
2023-04-07T03:45:40.364Z,38.22
2023-04-07T03:46:42.852Z,33.38
2023-04-07T03:47:45.260Z,35.67
2023-04-07T03:48:47.715Z,39.53
2023-04-07T03:49:49.845Z,35.38
2023-04-07T03:50:51.854Z,36.70
2023-04-07T03:51:54.053Z,37.80
2023-04-07T03:52:56.034Z,36.25
2023-04-07T03:53:58.299Z,35.20
2023-04-07T03:55:01.118Z,32.70
2023-04-07T03:56:04.960Z,35.13
2023-04-07T03:57:08.190Z,34.67
2023-04-07T03:58:11.287Z,36.80
2023-04-07T03:59:13.407Z,35.00
2023-04-07T04:00:16.757Z,31.92
2023-04-07T04:01:19.039Z,35.30
2023-04-07T04:02:22.056Z,36.28
2023-04-07T04:03:25.416Z,35.13
2023-04-07T04:04:29.058Z,33.38
2023-04-07T04:05:31.315Z,37.30
2023-04-07T04:06:33.924Z,36.72
2023-04-07T04:07:36.434Z,36.65
2023-04-07T04:08:38.647Z,38.58
2023-04-07T04:09:40.648Z,36.33
2023-04-07T04:10:42.533Z,37.55
2023-04-07T04:11:44.547Z,37.83
2023-04-07T04:12:47.789Z,40.33
2023-04-07T04:13:49.677Z,39.78
2023-04-07T04:14:51.597Z,34.50
2023-04-07T04:15:53.812Z,39.30
2023-04-07T04:16:55.816Z,40.08
2023-04-07T04:17:58.506Z,39.05
2023-04-07T04:19:01.008Z,36.85
2023-04-07T04:20:04.770Z,42.35
2023-04-07T04:21:08.101Z,40.35
2023-04-07T04:22:10.583Z,44.10
2023-04-07T04:23:16.595Z,44.85
2023-04-07T04:24:19.158Z,47.00
2023-04-07T04:25:21.653Z,48.45
2023-04-07T04:26:26.145Z,54.25
2023-04-07T04:27:29.498Z,50.80
2023-04-07T04:28:32.459Z,45.75
2023-04-07T04:29:35.097Z,48.85
2023-04-07T04:30:37.504Z,48.20
2023-04-07T04:31:39.667Z,57.80
2023-04-07T04:32:42.429Z,47.95
2023-04-07T04:33:45.360Z,47.92
2023-04-07T04:34:47.434Z,50.20
2023-04-07T04:35:50.302Z,52.15
2023-04-07T04:36:52.425Z,49.45
2023-04-07T04:37:54.849Z,52.40
2023-04-07T04:38:57.000Z,47.28
2023-04-07T04:39:58.985Z,52.25
2023-04-07T04:41:00.882Z,50.67
2023-04-07T04:42:03.888Z,50.47
2023-04-07T04:43:07.189Z,49.33
2023-04-07T04:44:10.211Z,48.85
2023-04-07T04:45:14.105Z,52.33
2023-04-07T04:46:17.401Z,52.25
2023-04-07T04:47:20.621Z,49.83
2023-04-07T04:48:22.692Z,52.22
2023-04-07T04:49:24.870Z,54.63
2023-04-07T04:50:27.187Z,51.90
2023-04-07T04:51:29.568Z,49.33
2023-04-07T04:52:32.038Z,51.28
2023-04-07T04:53:34.614Z,48.45
2023-04-07T04:54:36.835Z,51.90
2023-04-07T04:55:40.854Z,50.95
2023-04-07T04:56:43.048Z,53.30
2023-04-07T04:57:45.394Z,52.03
2023-04-07T04:58:47.843Z,51.15
2023-04-07T04:59:50.873Z,49.83
2023-04-07T05:00:58.314Z,51.60
2023-04-07T05:02:01.121Z,53.17
2023-04-07T05:03:03.587Z,51.15
2023-04-07T05:04:07.158Z,53.97
2023-04-07T05:05:09.860Z,55.42
2023-04-07T05:06:12.225Z,52.90
2023-04-07T05:07:16.181Z,52.58
2023-04-07T05:08:18.100Z,51.22
2023-04-07T05:09:20.064Z,49.85
2023-04-07T05:10:23.181Z,54.97
2023-04-07T05:11:25.832Z,53.35
2023-04-07T05:12:27.910Z,50.53
2023-04-07T05:13:31.216Z,53.95
2023-04-07T05:14:34.283Z,50.70
2023-04-07T05:15:38.019Z,49.95
2023-04-07T05:16:41.145Z,51.60
2023-04-07T05:17:50.390Z,49.05
2023-04-07T05:18:54.857Z,48.00
2023-04-07T05:19:56.998Z,49.63
2023-04-07T05:21:02.104Z,50.42
2023-04-07T05:22:04.731Z,46.65
2023-04-07T05:23:08.390Z,54.55
2023-04-07T05:24:10.754Z,46.33
2023-04-07T05:25:13.250Z,49.92
2023-04-07T05:26:15.907Z,50.88
2023-04-07T05:27:18.444Z,48.22
2023-04-07T05:28:21.198Z,52.17
2023-04-07T05:29:23.930Z,51.28
2023-04-07T05:30:26.288Z,48.47
2023-04-07T05:31:28.464Z,51.17
2023-04-07T05:32:30.872Z,60.58
2023-04-07T05:33:34.292Z,55.15
2023-04-07T05:34:37.492Z,49.88
2023-04-07T05:35:39.459Z,53.53
2023-04-07T05:36:41.846Z,50.47
2023-04-07T05:37:43.796Z,49.10
2023-04-07T05:38:46.481Z,50.05
2023-04-07T05:39:48.640Z,49.75
2023-04-07T05:40:50.662Z,46.05
2023-04-07T05:41:53.681Z,46.17
2023-04-07T05:42:57.178Z,45.10
2023-04-07T05:43:59.648Z,49.03
2023-04-07T05:45:02.270Z,52.40
2023-04-07T05:46:04.364Z,50.83
2023-04-07T05:47:09.091Z,47.00
2023-04-07T05:48:11.528Z,45.10
2023-04-07T05:49:20.074Z,46.80
2023-04-07T05:50:23.223Z,46.53
2023-04-07T05:51:26.373Z,40.63
2023-04-07T05:52:28.867Z,42.25
2023-04-07T05:53:31.428Z,45.80
2023-04-07T05:54:33.363Z,46.88
2023-04-07T05:55:36.193Z,42.72
2023-04-07T05:56:38.194Z,41.08
2023-04-07T05:57:41.818Z,41.22
2023-04-07T05:58:44.270Z,45.20
2023-04-07T05:59:46.465Z,43.83
2023-04-07T06:00:48.585Z,49.05
2023-04-07T06:01:51.504Z,39.83
2023-04-07T06:02:54.227Z,46.95
2023-04-07T06:03:57.805Z,46.42
2023-04-07T06:05:00.464Z,43.70
2023-04-07T06:06:02.488Z,42.08
2023-04-07T06:07:04.622Z,45.22
2023-04-07T06:08:06.598Z,46.83
2023-04-07T06:09:08.589Z,41.83
2023-04-07T06:10:10.870Z,46.17
2023-04-07T06:11:13.036Z,70.90
2023-04-07T06:12:16.963Z,81.85
2023-04-07T06:13:18.902Z,59.92
2023-04-07T06:14:20.914Z,56.65
2023-04-07T06:15:23.922Z,44.00
2023-04-07T06:16:25.968Z,37.90
2023-04-07T06:17:28.277Z,36.03
2023-04-07T06:18:30.522Z,35.15
2023-04-07T06:19:33.132Z,38.03
2023-04-07T06:20:36.208Z,36.50
2023-04-07T06:21:38.123Z,36.35
2023-04-07T06:22:40.484Z,33.13
2023-04-07T06:23:42.776Z,36.50
2023-04-07T06:24:44.658Z,33.40
2023-04-07T06:25:46.639Z,35.40
2023-04-07T06:26:49.134Z,33.47
2023-04-07T06:27:51.690Z,36.35
2023-04-07T06:28:53.751Z,39.88
2023-04-07T06:29:56.796Z,39.55
2023-04-07T06:30:59.584Z,37.53
2023-04-07T06:32:02.537Z,38.65
2023-04-07T06:33:04.770Z,35.65
2023-04-07T06:34:06.684Z,32.88
2023-04-07T06:35:08.914Z,35.17
2023-04-07T06:36:11.494Z,39.55
2023-04-07T06:37:13.431Z,33.08
2023-04-07T06:38:15.972Z,33.67
2023-04-07T06:39:18.076Z,34.67
2023-04-07T06:40:19.957Z,32.50
2023-04-07T06:41:21.944Z,37.90
2023-04-07T06:42:23.819Z,32.25
2023-04-07T06:43:26.446Z,33.78
2023-04-07T06:44:28.871Z,33.35
2023-04-07T06:45:30.719Z,28.77
2023-04-07T06:46:32.679Z,27.40
2023-04-07T06:47:34.675Z,33.50
2023-04-07T06:48:37.144Z,35.45
2023-04-07T06:49:39.116Z,32.83
2023-04-07T06:50:41.197Z,35.90
2023-04-07T06:51:43.063Z,34.08
2023-04-07T06:52:45.130Z,34.38
2023-04-07T06:53:48.890Z,36.05
2023-04-07T06:54:51.635Z,32.10
2023-04-07T06:56:03.566Z,33.17
2023-04-07T06:57:06.808Z,33.00
2023-04-07T06:58:08.754Z,31.75
2023-04-07T06:59:11.917Z,35.10
2023-04-07T07:00:15.041Z,31.50
2023-04-07T07:01:16.921Z,28.12
2023-04-07T07:02:19.051Z,26.05
2023-04-07T07:03:21.648Z,27.33
2023-04-07T07:04:24.288Z,24.95
2023-04-07T07:05:26.393Z,28.20
2023-04-07T07:06:28.246Z,26.50
2023-04-07T07:07:30.557Z,26.02
2023-04-07T07:08:32.422Z,22.83
2023-04-07T07:09:34.587Z,27.42
2023-04-07T07:10:36.469Z,26.30
2023-04-07T07:11:38.395Z,27.50
2023-04-07T07:12:40.354Z,24.40
2023-04-07T07:13:42.273Z,32.55
2023-04-07T07:14:44.440Z,30.88
2023-04-07T07:15:46.462Z,30.08
2023-04-07T07:16:48.295Z,33.78
2023-04-07T07:17:50.240Z,29.83
2023-04-07T07:18:52.174Z,28.70
2023-04-07T07:19:54.371Z,29.33
2023-04-07T07:20:56.336Z,29.55
2023-04-07T07:21:58.253Z,30.02
2023-04-07T07:23:00.148Z,28.58
2023-04-07T07:24:01.978Z,28.12
2023-04-07T07:25:04.482Z,29.90
2023-04-07T07:26:06.446Z,43.58
2023-04-07T07:27:08.431Z,50.10
2023-04-07T07:28:10.401Z,31.25
2023-04-07T07:29:12.426Z,33.83
2023-04-07T07:30:14.714Z,37.70
2023-04-07T07:31:16.867Z,33.92
2023-04-07T07:32:18.886Z,39.63
2023-04-07T07:33:22.729Z,46.72
2023-04-07T07:34:24.639Z,56.53
2023-04-07T07:35:26.927Z,43.25
2023-04-07T07:36:28.807Z,41.08
2023-04-07T07:37:30.739Z,38.80
2023-04-07T07:38:33.031Z,31.48
2023-04-07T07:39:36.061Z,37.08
2023-04-07T07:40:38.294Z,35.30
2023-04-07T07:41:40.462Z,33.65
2023-04-07T07:42:42.391Z,31.65
2023-04-07T07:43:44.284Z,34.50
2023-04-07T07:44:46.132Z,33.42
2023-04-07T07:45:48.302Z,29.60
2023-04-07T07:46:51.368Z,29.12
2023-04-07T07:47:53.376Z,55.92
2023-04-07T07:48:55.470Z,31.33
2023-04-07T07:49:57.349Z,31.65
2023-04-07T07:50:59.682Z,28.40
2023-04-07T07:52:02.601Z,30.70
2023-04-07T07:53:04.759Z,29.80
2023-04-07T07:54:06.871Z,28.27
2023-04-07T07:55:09.145Z,29.02
2023-04-07T07:56:11.554Z,35.47
2023-04-07T07:57:13.554Z,30.40
2023-04-07T07:58:15.751Z,27.23
2023-04-07T07:59:17.900Z,26.67
2023-04-07T08:00:20.045Z,26.08
2023-04-07T08:01:23.291Z,25.02
2023-04-07T08:02:30.869Z,27.55
2023-04-07T08:03:33.117Z,29.95
2023-04-07T08:04:36.518Z,34.95
2023-04-07T08:05:38.565Z,30.98
2023-04-07T08:06:41.780Z,30.73
2023-04-07T08:07:43.780Z,30.35
2023-04-07T08:08:45.778Z,28.70
2023-04-07T08:09:47.867Z,34.42
2023-04-07T08:10:49.819Z,32.97
2023-04-07T08:11:52.475Z,31.05
2023-04-07T08:12:54.357Z,30.27
2023-04-07T08:13:56.238Z,30.88
2023-04-07T08:14:58.060Z,33.28
2023-04-07T08:15:59.969Z,33.42
2023-04-07T08:17:02.149Z,30.35
2023-04-07T08:18:06.430Z,32.05
2023-04-07T08:19:08.405Z,30.20
2023-04-07T08:20:11.663Z,32.05
2023-04-07T08:21:13.908Z,29.87
2023-04-07T08:22:16.187Z,29.52
2023-04-07T08:23:18.048Z,29.55
2023-04-07T08:24:19.959Z,32.80
2023-04-07T08:25:22.019Z,28.23
2023-04-07T08:26:24.109Z,29.92
2023-04-07T08:27:26.352Z,29.90
2023-04-07T08:28:28.239Z,28.80
2023-04-07T08:29:31.323Z,29.30
2023-04-07T08:30:34.146Z,29.58
2023-04-07T08:31:36.516Z,28.73
2023-04-07T08:32:41.279Z,29.12
2023-04-07T08:33:43.145Z,29.48
2023-04-07T08:34:45.012Z,31.73
2023-04-07T08:35:47.596Z,27.80
2023-04-07T08:36:49.624Z,31.95
2023-04-07T08:37:51.810Z,35.15
2023-04-07T08:38:54.157Z,48.83
2023-04-07T08:39:56.531Z,89.75
2023-04-07T08:41:03.800Z,57.53
2023-04-07T08:42:07.470Z,41.15
2023-04-07T08:43:10.685Z,42.97
2023-04-07T08:44:14.026Z,42.00
2023-04-07T08:45:19.149Z,30.90
2023-04-07T08:46:25.784Z,29.90
2023-04-07T08:47:30.818Z,31.33
2023-04-07T08:48:34.960Z,27.45
2023-04-07T08:49:39.832Z,31.75
2023-04-07T08:50:46.370Z,27.50
2023-04-07T08:51:48.537Z,30.88
2023-04-07T08:52:54.884Z,30.95
2023-04-07T08:54:05.950Z,29.15
2023-04-07T08:55:08.708Z,27.52
2023-04-07T08:56:14.516Z,24.05
2023-04-07T08:57:18.058Z,29.45
2023-04-07T08:58:20.439Z,29.92
2023-04-07T08:59:26.791Z,29.37
2023-04-07T09:00:29.554Z,30.17
2023-04-07T09:01:32.428Z,26.20
2023-04-07T09:02:39.000Z,29.65
2023-04-07T09:03:41.648Z,31.95
2023-04-07T09:04:44.811Z,29.55
2023-04-07T09:05:47.353Z,29.87
2023-04-07T09:06:49.630Z,26.58
2023-04-07T09:07:51.545Z,27.85
2023-04-07T09:08:54.618Z,28.12
2023-04-07T09:09:57.464Z,28.17
2023-04-07T09:10:59.513Z,28.38
2023-04-07T09:12:02.061Z,26.67
2023-04-07T09:13:03.985Z,25.98
2023-04-07T09:14:05.978Z,26.58
2023-04-07T09:15:08.829Z,29.40
2023-04-07T09:16:11.191Z,29.42
2023-04-07T09:17:13.251Z,27.42
2023-04-07T09:18:16.484Z,25.23
2023-04-07T09:19:18.396Z,26.77
2023-04-07T09:20:21.123Z,26.08
2023-04-07T09:21:23.145Z,33.13
2023-04-07T09:22:47.504Z,29.20
2023-04-07T09:23:50.450Z,27.02
2023-04-07T09:24:52.483Z,27.55
2023-04-07T09:25:54.675Z,28.98
2023-04-07T09:27:17.042Z,27.90
2023-04-07T09:28:19.307Z,29.40
2023-04-07T09:29:21.759Z,28.30
2023-04-07T09:30:23.991Z,27.42
2023-04-07T09:31:55.444Z,27.27
2023-04-07T09:32:58.656Z,29.48
2023-04-07T09:34:01.252Z,28.17
2023-04-07T09:35:03.156Z,26.37
2023-04-07T09:36:06.898Z,24.60
2023-04-07T09:37:11.861Z,24.58
2023-04-07T09:38:14.062Z,25.60
2023-04-07T09:39:16.225Z,25.35
2023-04-07T09:40:27.169Z,27.90
2023-04-07T09:41:29.328Z,26.97
2023-04-07T09:42:34.622Z,26.35
2023-04-07T09:43:38.708Z,24.87
2023-04-07T09:44:43.745Z,27.10
2023-04-07T09:45:46.161Z,26.33
2023-04-07T09:46:58.986Z,28.35
2023-04-07T09:48:06.083Z,27.70
2023-04-07T09:49:08.223Z,31.17
2023-04-07T09:50:10.408Z,28.75
2023-04-07T09:51:14.566Z,47.75
2023-04-07T09:52:17.623Z,81.70
2023-04-07T09:53:20.237Z,80.62
2023-04-07T09:54:52.173Z,55.60
2023-04-07T09:55:54.226Z,37.53
2023-04-07T09:56:57.734Z,29.67
2023-04-07T09:58:00.525Z,28.52
2023-04-07T09:59:04.303Z,27.58
2023-04-07T10:00:07.080Z,28.10
2023-04-07T10:01:19.132Z,30.10
2023-04-07T10:02:23.080Z,27.62
2023-04-07T10:03:25.127Z,28.10
2023-04-07T10:04:29.130Z,33.58
2023-04-07T10:05:31.697Z,29.67
2023-04-07T10:06:33.602Z,28.95
2023-04-07T10:07:35.959Z,27.73
2023-04-07T10:08:41.619Z,25.58
2023-04-07T10:09:43.714Z,27.37
2023-04-07T10:10:46.816Z,26.92
2023-04-07T10:11:53.889Z,27.05
2023-04-07T10:12:58.412Z,29.12
2023-04-07T10:14:00.332Z,24.87
2023-04-07T10:15:02.559Z,28.73
2023-04-07T10:16:07.314Z,24.87
2023-04-07T10:17:09.476Z,28.95
2023-04-07T10:18:11.933Z,26.17
2023-04-07T10:19:14.540Z,27.42
2023-04-07T10:20:21.235Z,26.87
2023-04-07T10:21:23.370Z,28.85
2023-04-07T10:22:27.836Z,27.35
2023-04-07T10:24:09.357Z,25.73
2023-04-07T10:25:14.349Z,30.15
2023-04-07T10:26:19.801Z,29.08
2023-04-07T10:27:29.556Z,31.02
2023-04-07T10:28:34.242Z,30.90
2023-04-07T10:29:40.290Z,31.42
2023-04-07T10:30:42.857Z,30.70
2023-04-07T10:31:45.310Z,32.22
2023-04-07T10:32:51.888Z,33.67
2023-04-07T10:33:55.049Z,30.35
2023-04-07T10:34:58.216Z,32.70
2023-04-07T10:36:06.079Z,35.80
2023-04-07T10:37:17.739Z,31.27
2023-04-07T10:38:19.762Z,30.25
2023-04-07T10:39:22.515Z,30.73
2023-04-07T10:40:27.819Z,29.10
2023-04-07T10:41:36.626Z,32.25
2023-04-07T10:42:41.199Z,31.77
2023-04-07T10:43:45.028Z,30.60
2023-04-07T10:44:48.880Z,31.80
2023-04-07T10:45:53.790Z,30.92
2023-04-07T10:46:55.617Z,30.12
2023-04-07T10:48:03.349Z,33.53
2023-04-07T10:49:09.954Z,31.17
2023-04-07T10:50:18.083Z,33.15
2023-04-07T10:51:20.353Z,30.00
2023-04-07T10:52:24.025Z,30.17
2023-04-07T10:53:25.873Z,30.40
2023-04-07T10:54:29.425Z,31.90
2023-04-07T10:55:47.342Z,27.33
2023-04-07T10:57:10.159Z,32.42
2023-04-07T10:58:25.306Z,26.12
2023-04-07T10:59:28.142Z,31.00
2023-04-07T11:00:31.479Z,36.55
2023-04-07T11:01:34.713Z,35.90
2023-04-07T11:02:39.514Z,31.33
2023-04-07T11:03:52.301Z,28.67
2023-04-07T11:04:54.415Z,28.85
2023-04-07T11:06:13.913Z,26.80
2023-04-07T11:07:16.793Z,29.17
2023-04-07T11:08:34.330Z,29.87
2023-04-07T11:09:36.393Z,31.60
2023-04-07T11:10:38.713Z,28.75
2023-04-07T11:11:42.443Z,28.23
2023-04-07T11:12:45.594Z,33.50
2023-04-07T11:13:51.667Z,34.80
2023-04-07T11:14:53.872Z,29.15
2023-04-07T11:15:55.926Z,30.65
2023-04-07T11:16:59.485Z,29.25
2023-04-07T11:18:12.335Z,29.80
2023-04-07T11:19:14.213Z,32.53
2023-04-07T11:20:16.487Z,29.05
2023-04-07T11:21:19.706Z,28.75
2023-04-07T11:22:29.813Z,29.00
2023-04-07T11:23:44.404Z,29.90
2023-04-07T11:24:47.258Z,29.27
2023-04-07T11:25:51.182Z,29.30
2023-04-07T11:26:53.200Z,27.17
2023-04-07T11:27:55.118Z,30.25
2023-04-07T11:28:58.970Z,27.00
2023-04-07T11:30:00.955Z,26.83
2023-04-07T11:31:04.030Z,29.20
2023-04-07T11:32:06.394Z,26.02
2023-04-07T11:33:08.880Z,27.52
2023-04-07T11:34:12.053Z,27.58
2023-04-07T11:35:13.976Z,29.35
2023-04-07T11:36:26.861Z,27.30
2023-04-07T11:37:29.015Z,34.50
2023-04-07T11:38:37.479Z,28.95
2023-04-07T11:39:39.977Z,27.92
2023-04-07T11:40:41.979Z,27.27
2023-04-07T11:41:48.674Z,28.70
2023-04-07T11:42:51.565Z,28.38
2023-04-07T11:44:12.626Z,31.27
2023-04-07T11:45:20.649Z,29.70
2023-04-07T11:46:23.781Z,30.95
2023-04-07T11:47:39.955Z,31.37
2023-04-07T11:48:44.193Z,29.27
2023-04-07T11:49:47.049Z,27.95
2023-04-07T11:50:49.388Z,32.08
2023-04-07T11:51:59.475Z,27.40
2023-04-07T11:53:01.755Z,32.45
2023-04-07T11:54:04.055Z,28.87
2023-04-07T11:55:06.549Z,29.10
2023-04-07T11:56:12.060Z,30.20
2023-04-07T11:57:14.670Z,33.78
2023-04-07T11:58:16.616Z,30.83
2023-04-07T11:59:23.430Z,30.60
2023-04-07T12:00:25.541Z,32.80
2023-04-07T12:01:40.728Z,28.45
2023-04-07T12:02:42.934Z,30.27
2023-04-07T12:04:03.281Z,30.83
2023-04-07T12:05:06.136Z,28.42
2023-04-07T12:06:08.020Z,30.37
2023-04-07T12:07:12.145Z,27.08
2023-04-07T12:08:16.666Z,31.30
2023-04-07T12:09:29.419Z,31.00
2023-04-07T12:10:33.338Z,29.15
2023-04-07T12:11:36.613Z,29.63
2023-04-07T12:12:39.586Z,30.92
2023-04-07T12:13:41.552Z,34.97
2023-04-07T12:14:43.472Z,30.88
2023-04-07T12:15:45.425Z,29.58
2023-04-07T12:16:47.556Z,26.73
2023-04-07T12:17:49.960Z,26.17
2023-04-07T12:18:52.382Z,26.92
2023-04-07T12:19:54.251Z,24.10
2023-04-07T12:20:57.761Z,26.58
2023-04-07T12:21:59.614Z,25.45
2023-04-07T12:23:01.990Z,30.50
2023-04-07T12:24:03.915Z,31.65
2023-04-07T12:25:06.193Z,27.80
2023-04-07T12:26:08.281Z,30.02
2023-04-07T12:27:10.262Z,29.23
2023-04-07T12:28:12.388Z,33.50
2023-04-07T12:29:14.466Z,31.45
2023-04-07T12:30:16.720Z,31.77
2023-04-07T12:31:18.726Z,33.35
2023-04-07T12:32:21.441Z,31.67
2023-04-07T12:33:23.667Z,33.28
2023-04-07T12:34:25.674Z,29.08
2023-04-07T12:35:28.711Z,32.58
2023-04-07T12:36:30.675Z,30.00
2023-04-07T12:37:33.082Z,32.35
2023-04-07T12:38:35.293Z,31.08
2023-04-07T12:39:37.134Z,31.02
2023-04-07T12:40:39.150Z,29.73
2023-04-07T12:41:41.277Z,28.80
2023-04-07T12:42:43.285Z,31.08
2023-04-07T12:43:46.785Z,31.75
2023-04-07T12:44:48.958Z,35.38
2023-04-07T12:45:50.861Z,60.35
2023-04-07T12:46:53.368Z,71.45
2023-04-07T12:47:55.220Z,48.08
2023-04-07T12:48:57.388Z,45.00
2023-04-07T12:49:59.537Z,61.15
2023-04-07T12:51:01.429Z,50.08
2023-04-07T12:52:03.657Z,35.13
2023-04-07T12:53:05.620Z,41.53
2023-04-07T12:54:07.874Z,34.90
2023-04-07T12:55:09.726Z,30.25
2023-04-07T12:56:13.187Z,34.63
2023-04-07T12:57:16.076Z,59.65
2023-04-07T12:58:18.563Z,34.25
2023-04-07T12:59:20.790Z,27.17
2023-04-07T13:00:22.854Z,30.42
2023-04-07T13:01:25.023Z,47.55
2023-04-07T13:02:27.133Z,40.50
2023-04-07T13:03:29.425Z,32.92
2023-04-07T13:04:32.257Z,30.73
2023-04-07T13:05:34.433Z,33.00
2023-04-07T13:06:36.493Z,33.63
2023-04-07T13:07:38.445Z,47.62
2023-04-07T13:08:40.873Z,41.78
2023-04-07T13:09:43.617Z,66.75
2023-04-07T13:10:45.671Z,74.82
2023-04-07T13:11:47.598Z,66.57
2023-04-07T13:12:49.482Z,60.12
2023-04-07T13:13:51.571Z,57.08
2023-04-07T13:15:00.151Z,46.40
2023-04-07T13:16:02.758Z,42.10
2023-04-07T13:17:08.406Z,49.78
2023-04-07T13:18:10.629Z,39.53
2023-04-07T13:19:12.508Z,45.38
2023-04-07T13:20:19.393Z,41.72
2023-04-07T13:21:43.737Z,32.42
2023-04-07T13:22:50.711Z,46.10
2023-04-07T13:23:57.576Z,40.90
2023-04-07T13:25:00.805Z,56.47
2023-04-07T13:26:04.094Z,39.38
2023-04-07T13:27:06.181Z,37.53
2023-04-07T13:28:08.199Z,55.92
2023-04-07T13:29:10.103Z,48.55
2023-04-07T13:30:13.716Z,44.45
2023-04-07T13:31:16.445Z,35.38
2023-04-07T13:32:18.572Z,31.17
2023-04-07T13:33:21.083Z,35.17
2023-04-07T13:34:23.002Z,37.58
2023-04-07T13:35:25.061Z,34.88
2023-04-07T13:36:28.303Z,54.38
2023-04-07T13:37:30.485Z,36.75
2023-04-07T13:38:32.342Z,34.40
2023-04-07T13:39:34.221Z,34.03
2023-04-07T13:40:36.100Z,33.67
2023-04-07T13:41:38.258Z,37.20
2023-04-07T13:42:40.384Z,34.60
2023-04-07T13:43:42.294Z,31.42
2023-04-07T13:44:47.468Z,33.10